sensor_id;sensor_type;location;lat;lon;timestamp;pressure;altitude;pressure_sealevel;temperature;humidity
78459;BME280;67753;42.684;23.330;2023-05-10T00:01:25;95214.56;;;12.28;100.00
78459;BME280;67753;42.684;23.330;2023-05-10T00:03:28;95217.16;;;12.47;100.00
78459;BME280;67753;42.684;23.330;2023-05-10T00:05:30;95210.97;;;12.43;100.00
78459;BME280;67753;42.684;23.330;2023-05-10T00:07:32;95222.13;;;12.45;100.00
78459;BME280;67753;42.684;23.330;2023-05-10T00:09:34;95216.34;;;12.43;100.00
78459;BME280;67753;42.684;23.330;2023-05-10T00:11:35;95215.19;;;12.44;100.00
78459;BME280;67753;42.684;23.330;2023-05-10T00:13:37;95210.19;;;12.20;100.00
78459;BME280;67753;42.684;23.330;2023-05-10T00:15:39;95212.16;;;12.23;100.00
78459;BME280;67753;42.684;23.330;2023-05-10T00:17:41;95206.84;;;12.03;100.00
78459;BME280;67753;42.684;23.330;2023-05-10T00:19:44;95206.06;;;12.03;100.00
78459;BME280;67753;42.684;23.330;2023-05-10T00:21:46;95205.59;;;11.97;100.00
78459;BME280;67753;42.684;23.330;2023-05-10T00:23:48;95202.78;;;11.71;100.00
78459;BME280;67753;42.684;23.330;2023-05-10T00:25:50;95196.84;;;11.81;100.00
78459;BME280;67753;42.684;23.330;2023-05-10T00:27:52;95202.59;;;12.02;100.00
78459;BME280;67753;42.684;23.330;2023-05-10T00:29:55;95203.63;;;12.17;100.00
78459;BME280;67753;42.684;23.330;2023-05-10T00:31:57;95201.16;;;12.09;100.00
78459;BME280;67753;42.684;23.330;2023-05-10T00:33:59;95210.38;;;12.08;100.00
78459;BME280;67753;42.684;23.330;2023-05-10T00:36:03;95198.91;;;12.11;100.00
78459;BME280;67753;42.684;23.330;2023-05-10T00:38:07;95198.84;;;12.07;100.00
78459;BME280;67753;42.684;23.330;2023-05-10T00:40:11;95202.00;;;12.13;100.00
78459;BME280;67753;42.684;23.330;2023-05-10T00:42:14;95191.75;;;11.95;100.00
78459;BME280;67753;42.684;23.330;2023-05-10T00:44:15;95197.00;;;11.88;100.00
78459;BME280;67753;42.684;23.330;2023-05-10T00:46:18;95190.91;;;11.91;100.00
78459;BME280;67753;42.684;23.330;2023-05-10T00:48:22;95193.31;;;11.96;100.00
78459;BME280;67753;42.684;23.330;2023-05-10T00:50:24;95191.75;;;11.95;100.00
78459;BME280;67753;42.684;23.330;2023-05-10T00:52:28;95188.63;;;11.93;100.00
78459;BME280;67753;42.684;23.330;2023-05-10T00:54:29;95186.38;;;11.95;100.00
78459;BME280;67753;42.684;23.330;2023-05-10T00:56:31;95192.16;;;11.97;100.00
78459;BME280;67753;42.684;23.330;2023-05-10T00:58:33;95188.03;;;12.03;100.00
78459;BME280;67753;42.684;23.330;2023-05-10T01:00:36;95191.47;;;12.00;100.00
78459;BME280;67753;42.684;23.330;2023-05-10T01:02:41;95187.94;;;11.96;100.00
78459;BME280;67753;42.684;23.330;2023-05-10T01:04:43;95192.53;;;11.96;100.00
78459;BME280;67753;42.684;23.330;2023-05-10T01:06:45;95192.09;;;12.17;100.00
78459;BME280;67753;42.684;23.330;2023-05-10T01:08:48;95189.31;;;11.87;100.00
78459;BME280;67753;42.684;23.330;2023-05-10T01:10:50;95187.94;;;11.96;100.00
78459;BME280;67753;42.684;23.330;2023-05-10T01:12:52;95187.44;;;12.14;100.00
78459;BME280;67753;42.684;23.330;2023-05-10T01:14:54;95189.63;;;12.05;100.00
78459;BME280;67753;42.684;23.330;2023-05-10T01:16:57;95186.72;;;12.17;100.00
78459;BME280;67753;42.684;23.330;2023-05-10T01:18:59;95186.72;;;12.17;100.00
78459;BME280;67753;42.684;23.330;2023-05-10T01:21:19;95190.56;;;12.16;100.00
78459;BME280;67753;42.684;23.330;2023-05-10T01:23:36;95179.28;;;12.07;100.00
78459;BME280;67753;42.684;23.330;2023-05-10T01:25:59;95177.44;;;12.11;100.00
78459;BME280;67753;42.684;23.330;2023-05-10T01:31:08;95176.34;;;11.92;100.00
78459;BME280;67753;42.684;23.330;2023-05-10T01:33:23;95177.84;;;11.90;100.00
78459;BME280;67753;42.684;23.330;2023-05-10T01:35:34;95178.50;;;11.83;100.00
78459;BME280;67753;42.684;23.330;2023-05-10T01:37:42;95177.78;;;11.86;100.00
78459;BME280;67753;42.684;23.330;2023-05-10T01:39:49;95173.28;;;11.51;100.00
78459;BME280;67753;42.684;23.330;2023-05-10T01:42:03;95167.72;;;11.41;100.00
78459;BME280;67753;42.684;23.330;2023-05-10T01:44:13;95158.06;;;11.36;100.00
78459;BME280;67753;42.684;23.330;2023-05-10T01:46:26;95156.91;;;11.37;100.00
78459;BME280;67753;42.684;23.330;2023-05-10T01:48:33;95159.72;;;11.64;100.00
78459;BME280;67753;42.684;23.330;2023-05-10T01:50:37;95166.44;;;11.54;100.00
78459;BME280;67753;42.684;23.330;2023-05-10T01:52:42;95162.66;;;11.78;100.00
78459;BME280;67753;42.684;23.330;2023-05-10T01:54:50;95166.53;;;11.81;100.00
78459;BME280;67753;42.684;23.330;2023-05-10T01:56:59;95163.97;;;11.45;100.00
78459;BME280;67753;42.684;23.330;2023-05-10T01:59:06;95163.28;;;11.48;100.00
78459;BME280;67753;42.684;23.330;2023-05-10T02:01:10;95159.56;;;11.57;100.00
78459;BME280;67753;42.684;23.330;2023-05-10T02:03:13;95165.75;;;11.38;100.00
78459;BME280;67753;42.684;23.330;2023-05-10T02:05:19;95158.72;;;11.30;100.00
78459;BME280;67753;42.684;23.330;2023-05-10T02:07:22;95159.63;;;11.18;100.00
78459;BME280;67753;42.684;23.330;2023-05-10T02:09:25;95160.53;;;11.25;100.00
78459;BME280;67753;42.684;23.330;2023-05-10T02:11:29;95156.59;;;11.39;100.00
78459;BME280;67753;42.684;23.330;2023-05-10T02:13:34;95161.72;;;11.28;100.00
78459;BME280;67753;42.684;23.330;2023-05-10T02:15:40;95166.25;;;11.43;100.00
78459;BME280;67753;42.684;23.330;2023-05-10T02:17:43;95169.47;;;11.52;100.00
78459;BME280;67753;42.684;23.330;2023-05-10T02:19:47;95178.25;;;11.49;100.00
78459;BME280;67753;42.684;23.330;2023-05-10T02:21:51;95179.88;;;11.35;100.00
78459;BME280;67753;42.684;23.330;2023-05-10T02:23:54;95181.03;;;11.57;99.22
78459;BME280;67753;42.684;23.330;2023-05-10T02:25:58;95182.13;;;11.33;96.70
78459;BME280;67753;42.684;23.330;2023-05-10T02:28:03;95192.81;;;11.48;96.24
78459;BME280;67753;42.684;23.330;2023-05-10T02:30:07;95179.44;;;11.33;97.46
78459;BME280;67753;42.684;23.330;2023-05-10T02:32:10;95184.72;;;11.10;91.90
78459;BME280;67753;42.684;23.330;2023-05-10T02:34:13;95181.78;;;11.15;96.71
78459;BME280;67753;42.684;23.330;2023-05-10T02:36:15;95199.19;;;11.05;91.32
78459;BME280;67753;42.684;23.330;2023-05-10T02:38:20;95180.75;;;10.49;95.80
78459;BME280;67753;42.684;23.330;2023-05-10T02:40:25;95181.75;;;10.95;93.74
78459;BME280;67753;42.684;23.330;2023-05-10T02:42:31;95176.25;;;10.69;93.29
78459;BME280;67753;42.684;23.330;2023-05-10T02:44:35;95184.38;;;10.92;93.60
78459;BME280;67753;42.684;23.330;2023-05-10T02:46:38;95176.63;;;10.52;97.88
78459;BME280;67753;42.684;23.330;2023-05-10T02:48:39;95178.47;;;10.67;92.27
78459;BME280;67753;42.684;23.330;2023-05-10T02:50:44;95178.06;;;10.65;91.69
78459;BME280;67753;42.684;23.330;2023-05-10T02:52:50;95178.31;;;10.95;91.61
78459;BME280;67753;42.684;23.330;2023-05-10T02:54:55;95165.75;;;10.80;90.26
78459;BME280;67753;42.684;23.330;2023-05-10T02:57:02;95170.25;;;10.75;90.28
78459;BME280;67753;42.684;23.330;2023-05-10T02:59:05;95172.25;;;10.63;90.82
78459;BME280;67753;42.684;23.330;2023-05-10T03:01:07;95176.38;;;10.76;90.40
78459;BME280;67753;42.684;23.330;2023-05-10T03:03:09;95178.72;;;10.27;89.24
78459;BME280;67753;42.684;23.330;2023-05-10T03:05:12;95178.91;;;10.69;90.66
78459;BME280;67753;42.684;23.330;2023-05-10T03:07:14;95185.94;;;10.93;88.05
78459;BME280;67753;42.684;23.330;2023-05-10T03:09:17;95185.84;;;10.89;88.41
78459;BME280;67753;42.684;23.330;2023-05-10T03:11:31;95189.13;;;10.98;86.70
78459;BME280;67753;42.684;23.330;2023-05-10T03:13:41;95186.31;;;10.75;88.73
78459;BME280;67753;42.684;23.330;2023-05-10T03:15:51;95196.03;;;10.99;85.36
78459;BME280;67753;42.684;23.330;2023-05-10T03:18:02;95190.22;;;10.78;87.68
78459;BME280;67753;42.684;23.330;2023-05-10T03:20:09;95182.66;;;10.48;88.98
78459;BME280;67753;42.684;23.330;2023-05-10T03:22:19;95188.28;;;10.59;88.57
78459;BME280;67753;42.684;23.330;2023-05-10T03:24:27;95191.06;;;10.82;89.29
78459;BME280;67753;42.684;23.330;2023-05-10T03:26:31;95192.66;;;10.67;90.59
78459;BME280;67753;42.684;23.330;2023-05-10T03:28:35;95193.97;;;10.93;89.18
78459;BME280;67753;42.684;23.330;2023-05-10T03:30:37;95200.81;;;11.10;89.22
78459;BME280;67753;42.684;23.330;2023-05-10T03:32:40;95193.22;;;11.12;89.99
78459;BME280;67753;42.684;23.330;2023-05-10T03:34:42;95203.66;;;10.97;90.07
78459;BME280;67753;42.684;23.330;2023-05-10T03:36:45;95189.78;;;10.76;89.33
78459;BME280;67753;42.684;23.330;2023-05-10T03:38:49;95193.56;;;11.10;89.28
78459;BME280;67753;42.684;23.330;2023-05-10T03:40:51;95204.34;;;11.14;89.63
78459;BME280;67753;42.684;23.330;2023-05-10T03:42:54;95202.94;;;11.00;89.64
78459;BME280;67753;42.684;23.330;2023-05-10T03:44:56;95203.56;;;10.94;89.11
78459;BME280;67753;42.684;23.330;2023-05-10T03:46:58;95196.53;;;11.05;89.26
78459;BME280;67753;42.684;23.330;2023-05-10T03:49:01;95202.53;;;10.98;87.82
78459;BME280;67753;42.684;23.330;2023-05-10T03:51:03;95208.75;;;11.03;86.92
78459;BME280;67753;42.684;23.330;2023-05-10T03:53:05;95204.34;;;10.94;87.09
78459;BME280;67753;42.684;23.330;2023-05-10T03:55:07;95210.09;;;11.12;86.29
78459;BME280;67753;42.684;23.330;2023-05-10T03:57:09;95205.50;;;11.13;86.27
78459;BME280;67753;42.684;23.330;2023-05-10T03:59:12;95212.41;;;11.14;85.54
78459;BME280;67753;42.684;23.330;2023-05-10T04:01:14;95212.97;;;11.04;85.07
78459;BME280;67753;42.684;23.330;2023-05-10T04:03:16;95215.63;;;10.84;85.66
78459;BME280;67753;42.684;23.330;2023-05-10T04:05:18;95215.72;;;11.07;86.40
78459;BME280;67753;42.684;23.330;2023-05-10T04:07:20;95212.97;;;11.04;85.51
78459;BME280;67753;42.684;23.330;2023-05-10T04:09:26;95216.91;;;11.10;85.17
78459;BME280;67753;42.684;23.330;2023-05-10T04:11:29;95226.66;;;11.18;85.33
78459;BME280;67753;42.684;23.330;2023-05-10T04:13:31;95224.38;;;11.00;84.60
78459;BME280;67753;42.684;23.330;2023-05-10T04:15:35;95223.84;;;11.11;84.64
78459;BME280;67753;42.684;23.330;2023-05-10T04:17:37;95224.47;;;11.04;85.53
78459;BME280;67753;42.684;23.330;2023-05-10T04:19:38;95223.72;;;11.23;84.84
78459;BME280;67753;42.684;23.330;2023-05-10T04:21:40;95225.25;;;11.05;85.04
78459;BME280;67753;42.684;23.330;2023-05-10T04:23:42;95218.97;;;10.97;85.12
78459;BME280;67753;42.684;23.330;2023-05-10T04:25:44;95228.41;;;11.10;85.62
78459;BME280;67753;42.684;23.330;2023-05-10T04:27:46;95224.69;;;11.15;85.75
78459;BME280;67753;42.684;23.330;2023-05-10T04:29:48;95230.97;;;11.22;85.90
78459;BME280;67753;42.684;23.330;2023-05-10T04:31:53;95230.78;;;11.12;86.01
78459;BME280;67753;42.684;23.330;2023-05-10T04:33:56;95228.28;;;11.03;86.26
78459;BME280;67753;42.684;23.330;2023-05-10T04:35:58;95225.56;;;10.84;88.03
78459;BME280;67753;42.684;23.330;2023-05-10T04:38:00;95234.25;;;11.32;85.09
78459;BME280;67753;42.684;23.330;2023-05-10T04:40:03;95232.19;;;11.44;84.05
78459;BME280;67753;42.684;23.330;2023-05-10T04:42:07;95228.22;;;11.38;84.10
78459;BME280;67753;42.684;23.330;2023-05-10T04:44:08;95227.13;;;11.39;83.19
78459;BME280;67753;42.684;23.330;2023-05-10T04:46:10;95231.34;;;11.40;82.86
78459;BME280;67753;42.684;23.330;2023-05-10T04:48:13;95231.63;;;11.35;82.98
78459;BME280;67753;42.684;23.330;2023-05-10T04:50:15;95229.75;;;11.00;85.58
78459;BME280;67753;42.684;23.330;2023-05-10T04:52:17;95233.16;;;11.17;86.09
78459;BME280;67753;42.684;23.330;2023-05-10T04:54:19;95227.53;;;11.22;84.72
78459;BME280;67753;42.684;23.330;2023-05-10T04:56:21;95231.59;;;10.96;86.11
78459;BME280;67753;42.684;23.330;2023-05-10T04:58:23;95231.16;;;11.30;83.19
78459;BME280;67753;42.684;23.330;2023-05-10T05:00:25;95229.53;;;11.44;83.67
78459;BME280;67753;42.684;23.330;2023-05-10T05:02:27;95235.78;;;11.13;85.90
78459;BME280;67753;42.684;23.330;2023-05-10T05:04:31;95239.47;;;11.63;83.08
78459;BME280;67753;42.684;23.330;2023-05-10T05:06:32;95235.84;;;11.17;83.47
78459;BME280;67753;42.684;23.330;2023-05-10T05:08:34;95240.94;;;11.61;83.90
78459;BME280;67753;42.684;23.330;2023-05-10T05:10:36;95241.78;;;11.65;83.33
78459;BME280;67753;42.684;23.330;2023-05-10T05:12:38;95241.09;;;11.68;83.00
78459;BME280;67753;42.684;23.330;2023-05-10T05:14:40;95239.25;;;11.52;90.50
78459;BME280;67753;42.684;23.330;2023-05-10T05:16:42;95234.69;;;11.76;91.71
78459;BME280;67753;42.684;23.330;2023-05-10T05:18:44;95239.81;;;11.81;85.23
78459;BME280;67753;42.684;23.330;2023-05-10T05:20:47;95252.50;;;12.03;82.77
78459;BME280;67753;42.684;23.330;2023-05-10T05:22:49;95242.50;;;12.00;82.91
78459;BME280;67753;42.684;23.330;2023-05-10T05:24:51;95246.06;;;12.08;82.05
78459;BME280;67753;42.684;23.330;2023-05-10T05:26:53;95257.56;;;12.09;81.40
78459;BME280;67753;42.684;23.330;2023-05-10T05:28:54;95244.03;;;12.01;81.55
78459;BME280;67753;42.684;23.330;2023-05-10T05:30:56;95254.91;;;12.09;81.64
78459;BME280;67753;42.684;23.330;2023-05-10T05:32:59;95253.34;;;12.08;81.27
78459;BME280;67753;42.684;23.330;2023-05-10T05:35:00;95251.41;;;11.85;82.03
78459;BME280;67753;42.684;23.330;2023-05-10T05:37:04;95251.53;;;11.92;81.71
78459;BME280;67753;42.684;23.330;2023-05-10T05:39:06;95260.34;;;12.12;81.01
78459;BME280;67753;42.684;23.330;2023-05-10T05:41:08;95258.72;;;12.08;80.68
78459;BME280;67753;42.684;23.330;2023-05-10T05:43:10;95258.47;;;11.74;82.02
78459;BME280;67753;42.684;23.330;2023-05-10T05:45:12;95255.00;;;11.73;82.05
78459;BME280;67753;42.684;23.330;2023-05-10T05:47:14;95252.53;;;11.65;82.79
78459;BME280;67753;42.684;23.330;2023-05-10T05:49:16;95259.53;;;11.69;84.41
78459;BME280;67753;42.684;23.330;2023-05-10T05:51:18;95256.34;;;11.64;83.17
78459;BME280;67753;42.684;23.330;2023-05-10T05:54:18;95259.97;;;11.91;82.10
78459;BME280;67753;42.684;23.330;2023-05-10T05:56:20;95264.69;;;11.97;82.66
78459;BME280;67753;42.684;23.330;2023-05-10T05:58:25;95259.81;;;11.84;82.80
78459;BME280;67753;42.684;23.330;2023-05-10T06:00:29;95263.13;;;11.96;83.57
78459;BME280;67753;42.684;23.330;2023-05-10T06:02:31;95263.97;;;11.81;84.43
78459;BME280;67753;42.684;23.330;2023-05-10T06:04:33;95260.16;;;11.63;85.70
78459;BME280;67753;42.684;23.330;2023-05-10T06:06:35;95263.41;;;11.72;85.28
78459;BME280;67753;42.684;23.330;2023-05-10T06:08:37;95266.09;;;11.72;85.42
78459;BME280;67753;42.684;23.330;2023-05-10T06:10:41;95273.03;;;11.54;86.50
78459;BME280;67753;42.684;23.330;2023-05-10T06:12:42;95263.63;;;11.83;84.37
78459;BME280;67753;42.684;23.330;2023-05-10T06:14:45;95268.78;;;11.91;84.08
78459;BME280;67753;42.684;23.330;2023-05-10T06:16:47;95271.47;;;11.91;83.83
78459;BME280;67753;42.684;23.330;2023-05-10T06:18:49;95269.47;;;12.08;82.95
78459;BME280;67753;42.684;23.330;2023-05-10T06:20:52;95274.84;;;12.08;82.94
78459;BME280;67753;42.684;23.330;2023-05-10T06:22:54;95278.66;;;12.07;83.14
78459;BME280;67753;42.684;23.330;2023-05-10T06:24:56;95275.41;;;11.97;83.72
78459;BME280;67753;42.684;23.330;2023-05-10T06:26:59;95276.34;;;12.05;83.51
78459;BME280;67753;42.684;23.330;2023-05-10T06:29:02;95276.69;;;12.26;82.37
78459;BME280;67753;42.684;23.330;2023-05-10T06:31:04;95289.13;;;12.35;81.39
78459;BME280;67753;42.684;23.330;2023-05-10T06:33:06;95287.28;;;12.16;80.42
78459;BME280;67753;42.684;23.330;2023-05-10T06:35:09;95286.97;;;12.21;81.52
78459;BME280;67753;42.684;23.330;2023-05-10T06:37:11;95284.44;;;12.28;80.60
78459;BME280;67753;42.684;23.330;2023-05-10T06:39:13;95279.63;;;12.18;80.57
78459;BME280;67753;42.684;23.330;2023-05-10T06:41:15;95278.91;;;12.21;79.89
78459;BME280;67753;42.684;23.330;2023-05-10T06:43:18;95285.53;;;12.27;79.71
78459;BME280;67753;42.684;23.330;2023-05-10T06:45:20;95285.00;;;12.18;79.62
78459;BME280;67753;42.684;23.330;2023-05-10T06:47:21;95284.44;;;12.28;80.21
78459;BME280;67753;42.684;23.330;2023-05-10T06:49:23;95286.81;;;12.33;79.33
78459;BME280;67753;42.684;23.330;2023-05-10T06:51:25;95279.06;;;12.28;80.19
78459;BME280;67753;42.684;23.330;2023-05-10T06:53:27;95280.78;;;12.40;78.64
78459;BME280;67753;42.684;23.330;2023-05-10T06:55:29;95288.47;;;12.41;79.12
78459;BME280;67753;42.684;23.330;2023-05-10T06:57:31;95284.59;;;12.39;79.16
78459;BME280;67753;42.684;23.330;2023-05-10T06:59:34;95290.59;;;12.51;77.90
78459;BME280;67753;42.684;23.330;2023-05-10T07:01:37;95289.81;;;12.28;79.43
78459;BME280;67753;42.684;23.330;2023-05-10T07:03:39;95292.44;;;12.05;79.75
78459;BME280;67753;42.684;23.330;2023-05-10T07:05:41;95297.34;;;12.22;78.88
78459;BME280;67753;42.684;23.330;2023-05-10T07:07:43;95299.75;;;12.27;78.56
78459;BME280;67753;42.684;23.330;2023-05-10T07:09:45;95297.06;;;12.05;78.11
78459;BME280;67753;42.684;23.330;2023-05-10T07:11:47;95289.66;;;12.21;77.89
78459;BME280;67753;42.684;23.330;2023-05-10T07:13:49;95286.03;;;11.90;79.01
78459;BME280;67753;42.684;23.330;2023-05-10T07:15:53;95291.41;;;11.90;78.06
78459;BME280;67753;42.684;23.330;2023-05-10T07:17:54;95295.56;;;12.07;77.95
78459;BME280;67753;42.684;23.330;2023-05-10T07:19:56;95298.34;;;11.91;77.87
78459;BME280;67753;42.684;23.330;2023-05-10T07:21:58;95297.25;;;12.15;77.12
78459;BME280;67753;42.684;23.330;2023-05-10T07:24:00;95297.06;;;12.05;76.77
78459;BME280;67753;42.684;23.330;2023-05-10T07:26:04;95298.72;;;12.13;75.79
78459;BME280;67753;42.684;23.330;2023-05-10T07:28:06;95300.53;;;12.28;74.40
78459;BME280;67753;42.684;23.330;2023-05-10T07:30:08;95299.00;;;12.08;74.29
78459;BME280;67753;42.684;23.330;2023-05-10T07:32:12;95309.59;;;12.20;75.20
78459;BME280;67753;42.684;23.330;2023-05-10T07:34:14;95311.00;;;12.33;75.35
78459;BME280;67753;42.684;23.330;2023-05-10T07:36:15;95316.19;;;12.45;74.65
78459;BME280;67753;42.684;23.330;2023-05-10T07:38:17;95315.59;;;12.56;73.99
78459;BME280;67753;42.684;23.330;2023-05-10T07:40:19;95310.38;;;12.20;75.17
78459;BME280;67753;42.684;23.330;2023-05-10T07:42:21;95315.88;;;12.27;74.80
78459;BME280;67753;42.684;23.330;2023-05-10T07:44:23;95315.88;;;12.27;75.10
78459;BME280;67753;42.684;23.330;2023-05-10T07:46:25;95311.66;;;12.49;74.75
78459;BME280;67753;42.684;23.330;2023-05-10T07:48:28;95310.22;;;12.56;75.20
78459;BME280;67753;42.684;23.330;2023-05-10T07:50:30;95314.41;;;12.76;74.10
78459;BME280;67753;42.684;23.330;2023-05-10T07:52:32;95304.44;;;12.53;74.01
78459;BME280;67753;42.684;23.330;2023-05-10T07:54:34;95316.13;;;12.88;73.86
78459;BME280;67753;42.684;23.330;2023-05-10T07:56:36;95317.31;;;12.44;74.88
78459;BME280;67753;42.684;23.330;2023-05-10T07:58:38;95309.03;;;12.76;79.00
78459;BME280;67753;42.684;23.330;2023-05-10T08:00:39;95320.91;;;12.75;76.14
78459;BME280;67753;42.684;23.330;2023-05-10T08:02:41;95315.78;;;12.43;74.83
78459;BME280;67753;42.684;23.330;2023-05-10T08:04:45;95322.78;;;12.71;73.90
78459;BME280;67753;42.684;23.330;2023-05-10T08:06:47;95323.00;;;12.85;73.66
78459;BME280;67753;42.684;23.330;2023-05-10T08:08:49;95324.97;;;12.88;73.16
78459;BME280;67753;42.684;23.330;2023-05-10T08:10:52;95325.69;;;13.12;71.13
78459;BME280;67753;42.684;23.330;2023-05-10T08:12:54;95328.69;;;13.07;71.26
78459;BME280;67753;42.684;23.330;2023-05-10T08:14:57;95328.09;;;13.17;70.39
78459;BME280;67753;42.684;23.330;2023-05-10T08:16:59;95320.31;;;13.12;71.14
78459;BME280;67753;42.684;23.330;2023-05-10T08:19:01;95327.50;;;13.27;71.16
78459;BME280;67753;42.684;23.330;2023-05-10T08:21:04;95329.97;;;13.39;70.26
78459;BME280;67753;42.684;23.330;2023-05-10T08:23:06;95323.53;;;13.21;69.41
78459;BME280;67753;42.684;23.330;2023-05-10T08:25:08;95336.13;;;13.66;68.16
78459;BME280;67753;42.684;23.330;2023-05-10T08:27:10;95330.91;;;13.50;67.85
78459;BME280;67753;42.684;23.330;2023-05-10T08:29:13;95332.91;;;13.87;67.69
78459;BME280;67753;42.684;23.330;2023-05-10T08:31:15;95329.88;;;13.92;67.92
78459;BME280;67753;42.684;23.330;2023-05-10T08:33:18;95335.41;;;13.73;68.52
78459;BME280;67753;42.684;23.330;2023-05-10T08:35:20;95338.09;;;13.69;67.54
78459;BME280;67753;42.684;23.330;2023-05-10T08:37:24;95328.25;;;13.84;68.57
78459;BME280;67753;42.684;23.330;2023-05-10T08:39:25;95332.84;;;13.80;68.91
78459;BME280;67753;42.684;23.330;2023-05-10T08:41:28;95334.38;;;13.81;68.77
78459;BME280;67753;42.684;23.330;2023-05-10T08:43:32;95327.44;;;13.80;69.71
78459;BME280;67753;42.684;23.330;2023-05-10T08:45:37;95336.91;;;13.40;71.64
78459;BME280;67753;42.684;23.330;2023-05-10T08:47:39;95336.88;;;13.67;71.03
78459;BME280;67753;42.684;23.330;2023-05-10T08:49:43;95328.94;;;13.77;71.03
78459;BME280;67753;42.684;23.330;2023-05-10T08:51:50;95333.56;;;13.77;70.62
78459;BME280;67753;42.684;23.330;2023-05-10T08:53:56;95342.06;;;13.79;70.81
78459;BME280;67753;42.684;23.330;2023-05-10T08:56:00;95342.13;;;13.86;70.27
78459;BME280;67753;42.684;23.330;2023-05-10T08:58:03;95337.75;;;14.04;69.95
78459;BME280;67753;42.684;23.330;2023-05-10T09:00:06;95333.22;;;14.16;69.39
78459;BME280;67753;42.684;23.330;2023-05-10T09:02:10;95331.63;;;14.07;70.08
78459;BME280;67753;42.684;23.330;2023-05-10T09:04:13;95334.19;;;14.34;68.49
78459;BME280;67753;42.684;23.330;2023-05-10T09:06:15;95332.50;;;14.19;69.97
78459;BME280;67753;42.684;23.330;2023-05-10T09:08:17;95335.44;;;14.40;68.59
78459;BME280;67753;42.684;23.330;2023-05-10T09:10:23;95331.31;;;14.50;68.70
78459;BME280;67753;42.684;23.330;2023-05-10T09:12:27;95329.84;;;14.56;68.70
78459;BME280;67753;42.684;23.330;2023-05-10T09:14:30;95336.09;;;14.67;68.00
78459;BME280;67753;42.684;23.330;2023-05-10T09:16:32;95332.41;;;14.45;68.12
78459;BME280;67753;42.684;23.330;2023-05-10T09:18:34;95332.75;;;14.81;67.35
78459;BME280;67753;42.684;23.330;2023-05-10T09:20:35;95331.78;;;15.03;66.90
78459;BME280;67753;42.684;23.330;2023-05-10T09:22:37;95336.03;;;15.04;66.66
78459;BME280;67753;42.684;23.330;2023-05-10T09:24:42;95332.88;;;14.95;66.89
78459;BME280;67753;42.684;23.330;2023-05-10T09:26:48;95328.41;;;14.69;68.08
78459;BME280;67753;42.684;23.330;2023-05-10T09:28:52;95323.41;;;14.30;68.34
78459;BME280;67753;42.684;23.330;2023-05-10T09:30:55;95327.00;;;14.86;66.67
78459;BME280;67753;42.684;23.330;2023-05-10T09:32:58;95327.41;;;14.47;68.66
78459;BME280;67753;42.684;23.330;2023-05-10T09:35:06;95328.25;;;14.18;67.64
78459;BME280;67753;42.684;23.330;2023-05-10T09:37:08;95329.44;;;14.57;67.69
78459;BME280;67753;42.684;23.330;2023-05-10T09:39:11;95320.78;;;14.78;66.32
78459;BME280;67753;42.684;23.330;2023-05-10T09:41:17;95325.53;;;14.96;65.82
78459;BME280;67753;42.684;23.330;2023-05-10T09:43:21;95325.63;;;15.06;65.24
78459;BME280;67753;42.684;23.330;2023-05-10T09:45:24;95325.09;;;15.42;64.68
78459;BME280;67753;42.684;23.330;2023-05-10T09:47:27;95323.56;;;15.41;65.00
78459;BME280;67753;42.684;23.330;2023-05-10T09:49:29;95324.31;;;15.41;64.92
78459;BME280;67753;42.684;23.330;2023-05-10T09:51:32;95325.03;;;15.31;64.84
78459;BME280;67753;42.684;23.330;2023-05-10T09:53:33;95318.00;;;15.16;64.62
78459;BME280;67753;42.684;23.330;2023-05-10T09:55:40;95316.78;;;15.06;64.97
78459;BME280;67753;42.684;23.330;2023-05-10T09:57:42;95309.69;;;14.46;66.73
78459;BME280;67753;42.684;23.330;2023-05-10T09:59:46;95307.94;;;14.65;65.73
78459;BME280;67753;42.684;23.330;2023-05-10T10:01:50;95309.84;;;14.61;66.22
78459;BME280;67753;42.684;23.330;2023-05-10T10:03:53;95307.31;;;14.41;65.17
78459;BME280;67753;42.684;23.330;2023-05-10T10:05:54;95306.00;;;14.62;65.90
78459;BME280;67753;42.684;23.330;2023-05-10T10:07:57;95298.25;;;14.56;65.78
78459;BME280;67753;42.684;23.330;2023-05-10T10:10:00;95299.56;;;14.36;65.00
78459;BME280;67753;42.684;23.330;2023-05-10T10:12:03;95295.59;;;14.23;66.49
78459;BME280;67753;42.684;23.330;2023-05-10T10:14:05;95295.72;;;14.37;66.95
78459;BME280;67753;42.684;23.330;2023-05-10T10:16:09;95289.75;;;14.54;66.49
78459;BME280;67753;42.684;23.330;2023-05-10T10:18:13;95289.06;;;14.65;66.33
78459;BME280;67753;42.684;23.330;2023-05-10T10:20:15;95287.31;;;14.83;66.02
78459;BME280;67753;42.684;23.330;2023-05-10T10:22:17;95292.28;;;14.77;65.01
78459;BME280;67753;42.684;23.330;2023-05-10T10:24:19;95295.31;;;14.76;66.52
78459;BME280;67753;42.684;23.330;2023-05-10T10:26:22;95302.78;;;14.93;65.41
78459;BME280;67753;42.684;23.330;2023-05-10T10:28:32;95295.38;;;14.83;65.19
78459;BME280;67753;42.684;23.330;2023-05-10T10:30:41;95293.38;;;14.73;66.24
78459;BME280;67753;42.684;23.330;2023-05-10T10:33:01;95291.22;;;14.93;65.54
78459;BME280;67753;42.684;23.330;2023-05-10T10:35:09;95293.19;;;14.99;65.92
78459;BME280;67753;42.684;23.330;2023-05-10T10:37:12;95304.44;;;15.08;65.23
78459;BME280;67753;42.684;23.330;2023-05-10T10:39:14;95298.84;;;15.42;64.82
78459;BME280;67753;42.684;23.330;2023-05-10T10:41:28;95294.47;;;15.89;62.45
78459;BME280;67753;42.684;23.330;2023-05-10T10:43:30;95295.41;;;15.45;63.13
78459;BME280;67753;42.684;23.330;2023-05-10T10:45:32;95293.63;;;15.67;62.06
78459;BME280;67753;42.684;23.330;2023-05-10T10:47:34;95300.69;;;15.97;62.06